Sheridan, WY

11:10 PM MDT on September 22, 2014 (GMT -0600)
North Airport Area | Change Station
CLOSE
Current Station
Personal Weather Station
Location: Sheridan, WY
Elevation: 3917 ft
Nearby Weather Stations

Elev 3917 ft 44.78 °N, 106.97 °W | Updated 11 minutes ago

Clear
Clear
54.3 °F
Feels Like 54.3 °F
N
2.2
Wind Variable Wind from WSW

Today
High -- | Low -- °F
--% Chance of Precip.
Yesterday
High -- | Low -- °F
Precip. -- in
6:55 AM 7:05 PM
Waning Crescent, 1% visible
Pressure 29.89 in
Visibility 10.0 miles
Clouds Clear
Dew Point 47 °F
Humidity 77%
Rainfall 0.00 in
Snow Depth 0 in , 1 in , 0 in
UV 0 out of 12
Pollen 4.70 out of 12
Air Quality Not available.
Flu Activity Not available.
METAR KSHR 230453Z AUTO 20004KT 10SM CLR 12/09 A2996 RMK AO2 SLP121 T01220089

More Conditions Fewer Conditions

Pressure 29.89 in
Visibility 10.0 miles
Clouds Clear
Dew Point 47 °F
Humidity 77%
Rainfall 0.00 in
Snow Depth 0 in , 1 in , 0 in
UV 0 out of 12
Pollen 4.70 out of 12
Air Quality Not available.
Flu Activity Not available.
METAR KSHR 230453Z AUTO 20004KT 10SM CLR 12/09 A2996 RMK AO2 SLP121 T01220089

More Conditions Fewer Conditions

10-Day Weather Forecast

Almanac

Astronomy

Sep. 22, 2014 Rise Set
Actual Time 6:55 AM MDT 7:05 PM MDT
Civil Twilight 6:25 AM MDT 7:34 PM MDT
Nautical Twilight 5:51 AM MDT 8:08 PM MDT
Astronomical Twilight 5:16 AM MDT 8:43 PM MDT
Moon 5:23 AM MDT (9/22) 6:15 PM MDT (9/22)
Length of Visible Light 13h 08m
Length of Day
12h 10m
Tomorrow will be 3m 6s shorter.
Waning Crescent, 1% of the Moon is Illuminated
Sep 23
Waning Crescent
Sep 24
New
Oct 1
First Quarter
Oct 8
Full
Oct 15
Last Quarter

Yesterday's Extremes

State Highs State Lows

Community

WunderPhotos

Upload Photos

1,755,607 photos uploaded!

Nearby

Snow Depth

Station Depth Elevation
Phillips Bench 0 in 8200 ft
Gros Ventre Summit 1 in 8750 ft
Reno Hill 0 in 8500 ft
Willow Creek 0 in 8450 ft
Blind Bull Summit 1 in 8900 ft

Earthquake Activity

City Distance Mag. Time & Date
No recent earthquake activity has been reported nearby.
Minimum magnitude displayed is 2.5.

Coastal Water Temperatures

Place Temperature
No Stations Reporting

Nearby Weather Stations